createdAt,value
2023-05-05T00:00:40.990Z,15.10
2023-05-05T00:03:07.799Z,15.10
2023-05-05T00:05:34.584Z,15.00
2023-05-05T00:08:01.463Z,15.10
2023-05-05T00:10:28.169Z,15.00
2023-05-05T00:12:54.974Z,14.90
2023-05-05T00:15:21.650Z,14.90
2023-05-05T00:17:48.703Z,14.90
2023-05-05T00:20:15.380Z,14.90
2023-05-05T00:22:42.085Z,14.80
2023-05-05T00:25:09.158Z,14.80
2023-05-05T00:27:35.977Z,14.90
2023-05-05T00:30:03.330Z,14.80
2023-05-05T00:32:30.149Z,14.80
2023-05-05T00:34:56.860Z,14.80
2023-05-05T00:37:23.629Z,14.80
2023-05-05T00:39:50.735Z,14.90
2023-05-05T00:42:17.505Z,14.80
2023-05-05T00:44:44.869Z,14.80
2023-05-05T00:47:12.748Z,14.90
2023-05-05T00:49:39.637Z,14.90
2023-05-05T00:52:07.265Z,14.90
2023-05-05T00:54:37.274Z,14.90
2023-05-05T00:57:04.333Z,14.90
2023-05-05T00:59:32.832Z,14.90
2023-05-05T01:01:59.924Z,14.90
2023-05-05T01:04:27.818Z,14.90
2023-05-05T01:07:01.953Z,14.90
2023-05-05T01:09:36.491Z,14.90
2023-05-05T01:12:12.335Z,14.80
2023-05-05T01:14:40.178Z,14.80
2023-05-05T01:17:27.255Z,14.80
2023-05-05T01:19:57.170Z,14.80
2023-05-05T01:22:27.012Z,14.80
2023-05-05T01:25:03.651Z,14.80
2023-05-05T01:27:34.883Z,14.80
2023-05-05T01:30:20.505Z,14.80
2023-05-05T01:32:50.956Z,14.80
2023-05-05T01:35:26.411Z,14.80
2023-05-05T01:38:14.744Z,14.80
2023-05-05T01:40:43.649Z,14.80
2023-05-05T01:43:12.386Z,14.70
2023-05-05T01:45:41.521Z,14.70
2023-05-05T01:48:09.045Z,14.70
2023-05-05T01:50:36.720Z,14.60
2023-05-05T01:53:04.119Z,14.60
2023-05-05T01:55:32.359Z,14.60
2023-05-05T01:58:00.088Z,14.60
2023-05-05T02:00:27.768Z,14.70
2023-05-05T02:02:57.321Z,14.70
2023-05-05T02:05:24.716Z,14.70
2023-05-05T02:07:53.795Z,14.60
2023-05-05T02:10:20.647Z,14.60
2023-05-05T02:12:47.849Z,14.50
2023-05-05T02:15:15.324Z,14.50
2023-05-05T02:17:46.734Z,14.50
2023-05-05T02:20:14.604Z,14.40
2023-05-05T02:22:41.497Z,14.50
2023-05-05T02:25:09.027Z,14.50
2023-05-05T02:27:36.179Z,14.50
2023-05-05T02:30:04.610Z,14.50
2023-05-05T02:32:35.845Z,14.50
2023-05-05T02:35:08.223Z,14.60
2023-05-05T02:37:36.787Z,14.60
2023-05-05T02:40:05.295Z,14.50
2023-05-05T02:42:38.670Z,14.60
2023-05-05T02:45:10.060Z,14.50
2023-05-05T02:47:39.580Z,14.50
2023-05-05T02:50:08.104Z,14.50
2023-05-05T02:52:37.787Z,14.50
2023-05-05T02:55:05.412Z,14.50
2023-05-05T02:57:45.857Z,14.50
2023-05-05T03:00:15.782Z,14.50
2023-05-05T03:02:45.201Z,14.50
2023-05-05T03:05:20.995Z,14.60
2023-05-05T03:08:03.186Z,14.60
2023-05-05T03:10:34.812Z,14.60
2023-05-05T03:13:03.031Z,14.60
2023-05-05T03:15:41.315Z,14.60
2023-05-05T03:18:08.795Z,14.60
2023-05-05T03:20:35.550Z,14.60
2023-05-05T03:23:07.214Z,14.60
2023-05-05T03:25:44.494Z,14.60
2023-05-05T03:28:16.457Z,14.60
2023-05-05T03:30:44.190Z,14.60
2023-05-05T03:33:12.634Z,14.70
2023-05-05T03:35:42.222Z,14.70
2023-05-05T03:38:12.103Z,14.70
2023-05-05T03:40:44.074Z,14.70
2023-05-05T03:43:14.153Z,14.70
2023-05-05T03:45:41.420Z,14.70
2023-05-05T03:48:09.986Z,14.70
2023-05-05T03:50:38.535Z,14.70
2023-05-05T03:53:05.311Z,14.70
2023-05-05T03:55:32.386Z,14.80
2023-05-05T03:57:59.383Z,14.70
2023-05-05T04:00:26.409Z,14.70
2023-05-05T04:02:53.757Z,14.70
2023-05-05T04:05:23.028Z,14.70
2023-05-05T04:07:50.265Z,14.60
2023-05-05T04:10:17.363Z,14.60
2023-05-05T04:12:44.366Z,14.60
2023-05-05T04:15:14.335Z,14.60
2023-05-05T04:17:41.523Z,14.60
2023-05-05T04:20:09.825Z,14.70
2023-05-05T04:22:38.478Z,14.70
2023-05-05T04:25:05.513Z,14.70
2023-05-05T04:27:32.669Z,14.80
2023-05-05T04:30:00.260Z,14.80
2023-05-05T04:32:27.088Z,14.80
2023-05-05T04:34:54.307Z,14.80
2023-05-05T04:37:21.865Z,14.90
2023-05-05T04:39:48.773Z,14.90
2023-05-05T04:42:15.479Z,14.90
2023-05-05T04:44:43.035Z,14.90
2023-05-05T04:47:10.943Z,15.00
2023-05-05T04:49:39.113Z,15.00
2023-05-05T04:52:07.594Z,15.10
2023-05-05T04:54:37.472Z,15.20
2023-05-05T04:57:04.172Z,15.30
2023-05-05T04:59:31.171Z,15.40
2023-05-05T05:01:58.076Z,15.50
2023-05-05T05:04:26.053Z,15.60
2023-05-05T05:06:53.025Z,15.70
2023-05-05T05:09:19.923Z,15.70
2023-05-05T05:11:46.740Z,15.80
2023-05-05T05:14:13.555Z,15.80
2023-05-05T05:16:40.587Z,15.90
2023-05-05T05:19:07.532Z,16.00
2023-05-05T05:21:34.350Z,16.00
2023-05-05T05:24:02.611Z,16.10
2023-05-05T05:26:29.659Z,16.20
2023-05-05T05:28:56.433Z,16.20
2023-05-05T05:31:23.795Z,16.30
2023-05-05T05:33:50.972Z,16.30
2023-05-05T05:36:18.576Z,16.40
2023-05-05T05:38:45.976Z,16.40
2023-05-05T05:41:12.876Z,16.50
2023-05-05T05:43:39.886Z,16.60
2023-05-05T05:46:09.072Z,16.60
2023-05-05T05:48:38.094Z,16.70
2023-05-05T05:51:04.868Z,16.70
2023-05-05T05:53:32.902Z,16.70
2023-05-05T05:56:01.372Z,16.70
2023-05-05T05:58:29.334Z,16.70
2023-05-05T06:00:56.507Z,16.80
2023-05-05T06:03:24.310Z,16.80
2023-05-05T06:05:51.112Z,16.90
2023-05-05T06:08:19.005Z,16.90
2023-05-05T06:10:50.660Z,16.90
2023-05-05T06:13:19.765Z,17.00
2023-05-05T06:15:49.763Z,17.00
2023-05-05T06:18:18.267Z,17.00
2023-05-05T06:20:47.465Z,17.10
2023-05-05T06:23:17.435Z,17.10
2023-05-05T06:25:51.562Z,17.20
2023-05-05T06:28:19.037Z,17.20
2023-05-05T06:30:45.884Z,17.30
2023-05-05T06:33:12.617Z,17.40
2023-05-05T06:35:39.443Z,17.50
2023-05-05T06:38:06.515Z,17.60
2023-05-05T06:40:33.523Z,17.60
2023-05-05T06:43:00.474Z,17.70
2023-05-05T06:45:33.928Z,17.70
2023-05-05T06:48:00.767Z,17.70
2023-05-05T06:50:28.089Z,17.70
2023-05-05T06:52:54.957Z,17.80
2023-05-05T06:55:25.657Z,17.80
2023-05-05T06:57:52.955Z,17.90
2023-05-05T07:00:20.073Z,18.00
2023-05-05T07:02:47.578Z,17.90
2023-05-05T07:05:14.698Z,17.90
2023-05-05T07:07:51.445Z,18.00
2023-05-05T07:10:18.570Z,18.10
2023-05-05T07:12:46.717Z,18.10
2023-05-05T07:15:26.862Z,18.10
2023-05-05T07:17:56.475Z,18.00
2023-05-05T07:20:24.250Z,18.00
2023-05-05T07:22:51.436Z,18.00
2023-05-05T07:25:18.247Z,18.00
2023-05-05T07:27:45.905Z,18.10
2023-05-05T07:30:15.551Z,18.20
2023-05-05T07:32:44.375Z,18.20
2023-05-05T07:35:11.321Z,18.40
2023-05-05T07:37:39.950Z,18.40
2023-05-05T07:40:07.901Z,18.40
2023-05-05T07:42:34.993Z,18.40
2023-05-05T07:45:03.518Z,18.40
2023-05-05T07:47:30.460Z,18.40
2023-05-05T07:49:57.640Z,18.40
2023-05-05T07:52:43.692Z,18.50
2023-05-05T07:55:12.712Z,18.60
2023-05-05T07:57:39.626Z,18.70
2023-05-05T08:00:07.046Z,18.70
2023-05-05T08:02:39.037Z,18.70
2023-05-05T08:05:07.281Z,18.70
2023-05-05T08:07:36.576Z,18.80
2023-05-05T08:10:03.456Z,18.80
2023-05-05T08:12:30.247Z,18.80
2023-05-05T08:14:57.368Z,18.90
2023-05-05T08:17:27.127Z,19.00
2023-05-05T08:19:55.536Z,19.00
2023-05-05T08:22:23.011Z,19.00
2023-05-05T08:24:50.587Z,19.10
2023-05-05T08:27:17.316Z,19.20
2023-05-05T08:29:44.230Z,19.30
2023-05-05T08:32:11.124Z,19.30
2023-05-05T08:34:37.818Z,19.30
2023-05-05T08:37:04.588Z,19.30
2023-05-05T08:39:31.307Z,19.30
2023-05-05T08:41:58.563Z,19.40
2023-05-05T08:44:26.899Z,19.50
2023-05-05T08:46:54.487Z,19.50
2023-05-05T08:49:21.811Z,19.60
2023-05-05T08:51:48.649Z,19.70
2023-05-05T08:54:18.895Z,19.80
2023-05-05T08:56:46.617Z,19.90
2023-05-05T08:59:15.724Z,20.00
2023-05-05T09:01:44.225Z,19.90
2023-05-05T09:04:11.013Z,19.90
2023-05-05T09:06:38.955Z,20.00
2023-05-05T09:09:06.745Z,20.10
2023-05-05T09:11:34.159Z,20.10
2023-05-05T09:14:01.852Z,20.10
2023-05-05T09:16:28.873Z,20.10
2023-05-05T09:19:03.434Z,20.20
2023-05-05T09:21:30.669Z,20.20
2023-05-05T09:24:09.051Z,20.20
2023-05-05T09:26:41.287Z,20.30
2023-05-05T09:29:09.715Z,20.20
2023-05-05T09:31:37.521Z,20.20
2023-05-05T09:34:17.201Z,20.20
2023-05-05T09:36:47.422Z,20.20
2023-05-05T09:39:14.774Z,20.30
2023-05-05T09:41:42.350Z,20.40
2023-05-05T09:44:09.635Z,20.50
2023-05-05T09:46:36.634Z,20.50
2023-05-05T09:49:19.250Z,20.50
2023-05-05T09:51:49.938Z,20.40
2023-05-05T09:54:27.387Z,20.40
2023-05-05T09:56:54.777Z,20.40
2023-05-05T09:59:23.309Z,20.40
2023-05-05T10:01:51.203Z,20.40
2023-05-05T10:04:28.339Z,20.50
2023-05-05T10:06:56.347Z,20.40
2023-05-05T10:09:23.953Z,20.40
2023-05-05T10:11:50.756Z,20.40
2023-05-05T10:14:18.243Z,20.40
2023-05-05T10:16:50.670Z,20.50
2023-05-05T10:19:18.354Z,20.50
2023-05-05T10:21:58.397Z,20.50
2023-05-05T10:24:28.047Z,20.60
2023-05-05T10:26:56.478Z,20.60
2023-05-05T10:29:28.727Z,20.70
2023-05-05T10:31:58.822Z,20.80
2023-05-05T10:34:38.972Z,20.90
2023-05-05T10:37:06.616Z,21.00
2023-05-05T10:39:36.407Z,21.10
2023-05-05T10:42:03.520Z,21.20
2023-05-05T10:44:31.797Z,21.30
2023-05-05T10:46:59.180Z,21.40
2023-05-05T10:49:35.897Z,21.50
2023-05-05T10:52:09.205Z,21.70
2023-05-05T10:54:45.599Z,21.80
2023-05-05T10:57:14.322Z,21.80
2023-05-05T10:59:41.868Z,21.80
2023-05-05T11:02:19.070Z,21.80
2023-05-05T11:05:03.482Z,21.80
2023-05-05T11:07:30.500Z,21.70
2023-05-05T11:10:03.738Z,21.60
2023-05-05T11:12:31.083Z,21.60
2023-05-05T11:15:16.887Z,21.70
2023-05-05T11:17:44.541Z,21.80
2023-05-05T11:20:11.631Z,21.70
2023-05-05T11:22:57.232Z,21.70
2023-05-05T11:25:36.848Z,21.70
2023-05-05T11:28:04.777Z,21.80
2023-05-05T11:30:31.690Z,21.70
2023-05-05T11:33:23.165Z,21.80
2023-05-05T11:35:57.086Z,21.70
2023-05-05T11:38:26.862Z,21.70
2023-05-05T11:40:58.101Z,21.80
2023-05-05T11:43:25.401Z,21.80
2023-05-05T11:46:09.788Z,21.80
2023-05-05T11:48:49.646Z,21.80
2023-05-05T11:51:17.603Z,21.80
2023-05-05T11:53:48.351Z,21.90
2023-05-05T11:56:24.888Z,21.90
2023-05-05T11:59:09.354Z,22.00
2023-05-05T12:01:41.103Z,22.00
2023-05-05T12:04:14.602Z,22.10
2023-05-05T12:06:42.172Z,22.10
2023-05-05T12:09:15.914Z,22.10
2023-05-05T12:11:49.472Z,22.10
2023-05-05T12:14:16.418Z,22.00
2023-05-05T12:16:59.044Z,22.10
2023-05-05T12:19:30.159Z,22.00
2023-05-05T12:21:57.053Z,22.10
2023-05-05T12:24:23.872Z,22.10
2023-05-05T12:26:51.680Z,22.10
2023-05-05T12:29:25.362Z,22.20
2023-05-05T12:31:52.206Z,22.20
2023-05-05T12:34:19.299Z,22.20
2023-05-05T12:36:46.247Z,22.20
2023-05-05T12:39:13.229Z,22.30
2023-05-05T12:41:42.435Z,22.30
2023-05-05T12:44:09.646Z,22.20
2023-05-05T12:46:48.563Z,22.20
2023-05-05T12:49:15.517Z,22.10
2023-05-05T12:51:55.188Z,22.10
2023-05-05T12:54:25.276Z,22.00
2023-05-05T12:56:53.648Z,22.00
2023-05-05T12:59:23.836Z,22.00
2023-05-05T13:01:54.641Z,22.00
2023-05-05T13:04:25.117Z,22.10
2023-05-05T13:07:08.206Z,22.10
2023-05-05T13:09:35.508Z,22.10
2023-05-05T13:12:03.654Z,22.10
2023-05-05T13:14:33.796Z,22.00
2023-05-05T13:17:00.763Z,22.10
2023-05-05T13:19:27.711Z,22.00
2023-05-05T13:21:55.515Z,22.00
2023-05-05T13:24:34.464Z,21.90
2023-05-05T13:27:09.545Z,21.80
2023-05-05T13:29:36.388Z,21.70
2023-05-05T13:32:03.250Z,21.40
2023-05-05T13:34:33.370Z,20.90
2023-05-05T13:37:02.969Z,20.20
2023-05-05T13:39:29.659Z,19.50
2023-05-05T13:41:57.840Z,19.00
2023-05-05T13:44:24.683Z,18.60
2023-05-05T13:46:51.502Z,18.20
2023-05-05T13:49:18.290Z,17.80
2023-05-05T13:51:46.781Z,17.40
2023-05-05T13:54:14.169Z,17.40
2023-05-05T13:56:40.948Z,17.40
2023-05-05T13:59:07.939Z,17.50
2023-05-05T14:01:35.019Z,17.70
2023-05-05T14:04:04.525Z,18.00
2023-05-05T14:06:32.566Z,18.10
2023-05-05T14:08:59.639Z,18.20
2023-05-05T14:11:26.679Z,18.20
2023-05-05T14:13:53.385Z,18.30
2023-05-05T14:16:20.236Z,18.30
2023-05-05T14:18:47.525Z,18.30
2023-05-05T14:21:14.313Z,18.30
2023-05-05T14:23:43.352Z,18.30
2023-05-05T14:26:10.115Z,18.40
2023-05-05T14:28:37.112Z,18.40
2023-05-05T14:31:05.453Z,18.50
2023-05-05T14:33:32.391Z,18.50
2023-05-05T14:35:59.835Z,18.60
2023-05-05T14:38:27.174Z,18.50
2023-05-05T14:40:54.008Z,18.60
2023-05-05T14:43:23.455Z,18.70
2023-05-05T14:45:50.189Z,18.70
2023-05-05T14:48:17.497Z,18.80
2023-05-05T14:50:46.240Z,18.90
2023-05-05T14:53:13.542Z,18.90
2023-05-05T14:55:40.274Z,19.00
2023-05-05T14:58:07.022Z,19.10
2023-05-05T15:00:33.856Z,19.10
2023-05-05T15:03:00.818Z,19.10
2023-05-05T15:05:31.629Z,19.10
2023-05-05T15:07:58.730Z,19.10
2023-05-05T15:10:25.849Z,19.00
2023-05-05T15:12:52.806Z,19.00
2023-05-05T15:15:19.869Z,19.00
2023-05-05T15:17:46.638Z,19.00
2023-05-05T15:20:13.581Z,19.00
2023-05-05T15:22:40.233Z,19.00
2023-05-05T15:25:10.740Z,19.10
2023-05-05T15:27:38.294Z,19.10
2023-05-05T15:30:06.305Z,19.00
2023-05-05T15:32:33.305Z,18.90
2023-05-05T15:35:00.447Z,18.70
2023-05-05T15:37:28.788Z,18.60
2023-05-05T15:39:55.750Z,18.70
2023-05-05T15:42:22.748Z,18.70
2023-05-05T15:44:49.472Z,18.70
2023-05-05T15:47:16.348Z,18.80
2023-05-05T15:49:42.992Z,18.80
2023-05-05T15:52:10.076Z,18.80
2023-05-05T15:54:36.769Z,18.70
2023-05-05T15:57:03.522Z,18.70
2023-05-05T15:59:30.227Z,18.70
2023-05-05T16:01:57.019Z,18.70
2023-05-05T16:04:23.745Z,18.60
2023-05-05T16:06:50.512Z,18.40
2023-05-05T16:09:17.817Z,18.10
2023-05-05T16:11:44.542Z,17.90
2023-05-05T16:14:11.310Z,17.60
2023-05-05T16:16:38.055Z,17.20
2023-05-05T16:19:04.832Z,16.90
2023-05-05T16:21:31.725Z,16.60
2023-05-05T16:23:58.450Z,16.10
2023-05-05T16:26:25.115Z,15.70
2023-05-05T16:28:52.190Z,15.30
2023-05-05T16:31:20.101Z,15.00
2023-05-05T16:33:46.830Z,14.80
2023-05-05T16:36:16.033Z,14.80
2023-05-05T16:38:43.650Z,14.70
2023-05-05T16:41:12.624Z,14.50
2023-05-05T16:43:39.416Z,14.60
2023-05-05T16:46:06.476Z,14.60
2023-05-05T16:48:33.146Z,14.60
2023-05-05T16:50:59.978Z,14.60
2023-05-05T16:53:26.876Z,14.50
2023-05-05T16:55:53.596Z,14.50
2023-05-05T16:58:20.838Z,14.50
2023-05-05T17:00:49.002Z,14.50
2023-05-05T17:03:19.070Z,14.60
2023-05-05T17:05:50.141Z,14.70
2023-05-05T17:08:17.205Z,14.80
2023-05-05T17:10:44.430Z,14.80
2023-05-05T17:13:11.913Z,14.80
2023-05-05T17:15:40.954Z,14.90
2023-05-05T17:18:08.328Z,14.90
2023-05-05T17:20:35.268Z,15.00
2023-05-05T17:23:05.020Z,15.00
2023-05-05T17:25:31.936Z,15.10
2023-05-05T17:27:58.705Z,15.20
2023-05-05T17:30:25.557Z,15.30
2023-05-05T17:32:52.475Z,15.40
2023-05-05T17:35:21.207Z,15.50
2023-05-05T17:37:48.043Z,15.50
2023-05-05T17:40:17.037Z,15.60
2023-05-05T17:42:44.080Z,15.60
2023-05-05T17:45:11.445Z,15.70
2023-05-05T17:47:39.590Z,15.70
2023-05-05T17:50:06.697Z,15.70
2023-05-05T17:52:33.559Z,15.70
2023-05-05T17:55:00.439Z,15.70
2023-05-05T17:57:27.402Z,15.70
2023-05-05T17:59:54.201Z,15.60
2023-05-05T18:02:21.275Z,15.60
2023-05-05T18:04:48.096Z,15.50
2023-05-05T18:07:14.916Z,15.50
2023-05-05T18:09:41.983Z,15.50
2023-05-05T18:12:08.899Z,15.60
2023-05-05T18:14:35.657Z,15.60
2023-05-05T18:17:03.409Z,15.60
2023-05-05T18:19:30.250Z,15.60
2023-05-05T18:21:59.864Z,15.60
2023-05-05T18:24:27.453Z,15.60
2023-05-05T18:26:55.408Z,15.70
2023-05-05T18:29:22.205Z,15.60
2023-05-05T18:31:51.825Z,15.60
2023-05-05T18:34:19.427Z,15.60
2023-05-05T18:36:46.658Z,15.60
2023-05-05T18:39:14.679Z,15.50
2023-05-05T18:41:41.523Z,15.50
2023-05-05T18:44:08.299Z,15.50
2023-05-05T18:46:35.189Z,15.40
2023-05-05T18:49:02.052Z,15.40
2023-05-05T18:51:28.841Z,15.40
2023-05-05T18:53:58.210Z,15.40
2023-05-05T18:56:24.981Z,15.40
2023-05-05T18:58:52.012Z,15.30
2023-05-05T19:01:18.873Z,15.30
2023-05-05T19:03:50.499Z,15.30
2023-05-05T19:06:17.435Z,15.20
2023-05-05T19:08:45.155Z,15.10
2023-05-05T19:11:12.477Z,15.20
2023-05-05T19:16:05.945Z,15.10
2023-05-05T19:18:32.906Z,15.00
2023-05-05T19:20:59.577Z,15.00
2023-05-05T19:23:26.253Z,14.90
2023-05-05T19:25:53.145Z,14.90
2023-05-05T19:28:19.778Z,14.90
2023-05-05T19:30:49.320Z,14.80
2023-05-05T19:33:16.236Z,14.80
2023-05-05T19:35:43.143Z,14.80
2023-05-05T19:38:10.364Z,14.80
2023-05-05T19:40:37.550Z,14.80
2023-05-05T19:43:04.233Z,14.80
2023-05-05T19:45:31.546Z,14.80
2023-05-05T19:47:58.312Z,14.80
2023-05-05T19:50:26.634Z,14.80
2023-05-05T19:52:54.249Z,14.70
2023-05-05T19:55:21.949Z,14.70
2023-05-05T19:57:48.596Z,14.60
2023-05-05T20:00:15.423Z,14.50
2023-05-05T20:02:42.424Z,14.40
2023-05-05T20:05:11.336Z,14.40
2023-05-05T20:07:37.990Z,14.30
2023-05-05T20:10:04.811Z,14.30
2023-05-05T20:12:31.498Z,14.30
2023-05-05T20:14:58.208Z,14.30
2023-05-05T20:17:25.701Z,14.30
2023-05-05T20:19:52.459Z,14.30
2023-05-05T20:22:19.302Z,14.30
2023-05-05T20:24:45.979Z,14.30
2023-05-05T20:27:12.593Z,14.40
2023-05-05T20:29:39.258Z,14.40
2023-05-05T20:32:06.018Z,14.40
2023-05-05T20:34:32.695Z,14.40
2023-05-05T20:36:59.396Z,14.40
2023-05-05T20:39:26.138Z,14.40
2023-05-05T20:41:52.869Z,14.30
2023-05-05T20:44:19.616Z,14.20
2023-05-05T20:46:46.687Z,14.30
2023-05-05T20:49:13.416Z,14.20
2023-05-05T20:51:40.072Z,14.20
2023-05-05T20:54:06.804Z,14.20
2023-05-05T20:56:33.527Z,14.10
2023-05-05T20:59:00.189Z,14.00
2023-05-05T21:01:26.974Z,13.90
2023-05-05T21:03:53.831Z,13.90
2023-05-05T21:06:20.546Z,13.80
2023-05-05T21:08:47.245Z,13.80
2023-05-05T21:11:13.900Z,13.80
2023-05-05T21:13:45.360Z,13.80
2023-05-05T21:16:12.085Z,13.80
2023-05-05T21:18:38.751Z,13.80
2023-05-05T21:21:05.544Z,13.80
2023-05-05T21:23:32.348Z,13.80
2023-05-05T21:25:59.059Z,13.80
2023-05-05T21:28:25.811Z,13.80
2023-05-05T21:33:22.104Z,13.80
2023-05-05T21:35:48.834Z,13.80
2023-05-05T21:38:15.667Z,13.70
2023-05-05T21:40:42.585Z,13.70
2023-05-05T21:43:09.193Z,13.70
2023-05-05T21:45:35.961Z,13.70
2023-05-05T21:48:02.765Z,13.60
2023-05-05T21:50:29.630Z,13.60
2023-05-05T21:52:56.496Z,13.60
2023-05-05T21:55:23.175Z,13.50
2023-05-05T21:57:49.872Z,13.50
2023-05-05T22:00:16.611Z,13.50
2023-05-05T22:02:44.191Z,13.50
2023-05-05T22:05:10.980Z,13.50
2023-05-05T22:07:37.794Z,13.40
2023-05-05T22:10:04.574Z,13.30
2023-05-05T22:12:31.226Z,13.30
2023-05-05T22:14:57.985Z,13.20
2023-05-05T22:17:24.637Z,13.30
2023-05-05T22:19:51.314Z,13.20
2023-05-05T22:22:17.993Z,13.20
2023-05-05T22:24:44.698Z,13.20
2023-05-05T22:27:11.451Z,13.10
2023-05-05T22:29:38.904Z,13.10
2023-05-05T22:32:05.692Z,13.10
2023-05-05T22:34:33.739Z,13.10
2023-05-05T22:37:00.359Z,13.00
2023-05-05T22:39:27.092Z,13.00
2023-05-05T22:41:53.717Z,13.00
2023-05-05T22:44:20.499Z,13.00
2023-05-05T22:46:47.153Z,13.00
2023-05-05T22:49:14.871Z,13.00
2023-05-05T22:51:41.731Z,13.00
2023-05-05T22:54:08.416Z,13.00
2023-05-05T22:56:35.371Z,12.90
2023-05-05T22:59:02.009Z,12.90
2023-05-05T23:01:28.887Z,12.90
2023-05-05T23:03:56.213Z,12.90
2023-05-05T23:06:22.982Z,12.90
2023-05-05T23:08:49.907Z,12.90
2023-05-05T23:11:16.587Z,12.90
2023-05-05T23:13:43.380Z,12.90
2023-05-05T23:16:10.284Z,12.80
2023-05-05T23:18:37.032Z,12.90
2023-05-05T23:21:03.935Z,12.90
2023-05-05T23:23:31.095Z,12.80
2023-05-05T23:25:57.823Z,12.80
2023-05-05T23:28:24.579Z,12.80
2023-05-05T23:30:51.384Z,12.70
2023-05-05T23:33:18.300Z,12.70
2023-05-05T23:35:45.558Z,12.70
2023-05-05T23:38:12.338Z,12.70
2023-05-05T23:40:39.062Z,12.70
2023-05-05T23:43:05.766Z,12.70
2023-05-05T23:45:32.504Z,12.70
2023-05-05T23:47:59.394Z,12.80
2023-05-05T23:50:27.655Z,12.80
2023-05-05T23:52:54.390Z,12.80
2023-05-05T23:55:21.180Z,12.80
2023-05-05T23:57:47.800Z,12.80
